Time;durP1;ratioP1;P1;durP2;ratioP2;P2;SDS_P1;SDS_P2;PMS_P1;PMS_P2;Temp;Humidity;BMP_temperature;BMP_pressure;BME280_temperature;BME280_humidity;BME280_pressure;Samples;Min_cycle;Max_cycle;Signal;HPM_P1;HPM_P2
2022/10/06 00:00:48;;;;;;;3.53;3.22;;;13.50;99.90;;;;;;5012910;28;20214;-68
2022/10/06 00:03:14;;;;;;;5.93;4.13;;;13.50;99.90;;;;;;5032334;28;20317;-69
2022/10/06 00:05:40;;;;;;;4.18;3.75;;;13.60;99.90;;;;;;5045345;28;20735;-69
2022/10/06 00:08:05;;;;;;;4.73;3.70;;;13.50;99.90;;;;;;5039547;28;20178;-69
2022/10/06 00:10:31;;;;;;;5.90;3.40;;;13.70;99.90;;;;;;5027469;28;20274;-69
2022/10/06 00:12:57;;;;;;;4.63;4.23;;;13.50;99.90;;;;;;5030555;28;20745;-69
2022/10/06 00:15:26;;;;;;;3.97;3.63;;;13.50;99.90;;;;;;5034136;28;20725;-68
2022/10/06 00:17:51;;;;;;;6.90;3.58;;;13.50;99.90;;;;;;5035269;28;20444;-69
2022/10/06 00:20:18;;;;;;;4.00;3.63;;;13.70;99.90;;;;;;5028131;28;20197;-69
2022/10/06 00:22:46;;;;;;;5.10;3.20;;;13.60;99.90;;;;;;5037223;28;20471;-69
2022/10/06 00:25:14;;;;;;;6.55;2.97;;;13.80;99.90;;;;;;5025662;28;20676;-70
2022/10/06 00:27:42;;;;;;;3.00;2.70;;;13.80;99.90;;;;;;5023280;28;20186;-69
2022/10/06 00:30:11;;;;;;;4.65;3.20;;;14.00;99.90;;;;;;5030204;28;20597;-70
2022/10/06 00:32:38;;;;;;;3.50;3.17;;;14.10;99.90;;;;;;5028797;28;20923;-70
2022/10/06 00:35:04;;;;;;;3.33;3.05;;;14.10;99.90;;;;;;5030851;28;20213;-69
2022/10/06 00:37:34;;;;;;;3.80;2.85;;;14.20;99.90;;;;;;5031095;28;20186;-70
2022/10/06 00:40:00;;;;;;;5.25;3.42;;;14.30;99.90;;;;;;5026232;28;20191;-68
2022/10/06 00:42:31;;;;;;;4.20;3.60;;;14.40;99.90;;;;;;5028220;28;20620;-70
2022/10/06 00:45:03;;;;;;;3.20;2.97;;;14.40;99.90;;;;;;5031066;28;20185;-69
2022/10/06 00:47:31;;;;;;;3.22;2.95;;;14.40;99.90;;;;;;5031840;28;20201;-69
2022/10/06 00:49:58;;;;;;;4.15;3.30;;;14.70;99.90;;;;;;5030395;28;20213;-72
2022/10/06 00:52:28;;;;;;;3.25;2.95;;;14.60;99.90;;;;;;5021769;28;20650;-69
2022/10/06 00:54:55;;;;;;;4.72;3.33;;;14.60;99.90;;;;;;5032279;28;20178;-72
2022/10/06 00:57:21;;;;;;;4.38;3.15;;;14.80;99.90;;;;;;5034081;28;20218;-68
2022/10/06 00:59:47;;;;;;;3.37;3.07;;;14.90;99.90;;;;;;5031028;28;20221;-69
2022/10/06 01:02:28;;;;;;;4.15;3.33;;;15.00;99.90;;;;;;5028070;28;20473;-69
2022/10/06 01:04:57;;;;;;;4.25;3.10;;;14.80;99.90;;;;;;5030666;28;20194;-69
2022/10/06 01:07:25;;;;;;;3.47;3.15;;;14.90;99.90;;;;;;5026555;28;20189;-69
2022/10/06 01:09:52;;;;;;;3.33;3.03;;;15.00;99.90;;;;;;5038374;28;20277;-69
2022/10/06 01:12:19;;;;;;;3.30;3.00;;;15.00;99.90;;;;;;5034862;28;20182;-69
2022/10/06 01:14:46;;;;;;;3.97;3.17;;;15.00;99.90;;;;;;5042469;28;20183;-69
2022/10/06 01:17:30;;;;;;;3.40;3.10;;;15.00;99.90;;;;;;5033093;28;20648;-69
2022/10/06 01:20:06;;;;;;;4.20;3.47;;;15.20;99.90;;;;;;5038011;28;20276;-68
2022/10/06 01:22:38;;;;;;;3.70;3.40;;;15.10;99.90;;;;;;5024155;28;20217;-70
2022/10/06 01:25:06;;;;;;;4.30;3.20;;;15.40;99.90;;;;;;5040646;28;20241;-69
2022/10/06 01:27:32;;;;;;;3.22;3.03;;;15.30;99.90;;;;;;5022523;28;20219;-70
2022/10/06 01:29:58;;;;;;;3.42;2.97;;;15.10;99.90;;;;;;5031342;28;20178;-70
2022/10/06 01:32:30;;;;;;;3.10;2.80;;;15.10;99.90;;;;;;5027893;28;20186;-69
2022/10/06 01:34:56;;;;;;;3.95;3.00;;;15.30;99.90;;;;;;5027457;28;20189;-69
2022/10/06 01:37:21;;;;;;;3.07;2.83;;;15.10;99.90;;;;;;5028377;28;20197;-69
2022/10/06 01:39:47;;;;;;;3.93;3.50;;;15.10;99.90;;;;;;5048408;28;20208;-69
2022/10/06 01:42:12;;;;;;;3.03;2.83;;;15.30;99.90;;;;;;5033629;28;20216;-69
2022/10/06 01:44:38;;;;;;;3.07;2.87;;;15.10;99.90;;;;;;5031454;28;20178;-69
2022/10/06 01:47:05;;;;;;;5.33;2.97;;;15.10;99.90;;;;;;5046287;28;20205;-69
2022/10/06 01:49:31;;;;;;;7.78;3.55;;;15.00;99.90;;;;;;5036428;28;20183;-69
2022/10/06 01:51:57;;;;;;;5.40;3.77;;;14.80;99.90;;;;;;5028648;28;20255;-70
2022/10/06 01:54:22;;;;;;;4.40;3.30;;;14.70;99.90;;;;;;5044735;28;20437;-69
2022/10/06 01:56:48;;;;;;;3.23;2.90;;;14.80;99.90;;;;;;5021226;28;20466;-69
2022/10/06 01:59:13;;;;;;;5.27;2.90;;;14.80;99.90;;;;;;5030544;28;20186;-68
2022/10/06 02:01:39;;;;;;;3.30;3.10;;;14.70;99.90;;;;;;5040487;28;20225;-68
2022/10/06 02:04:04;;;;;;;4.00;3.47;;;14.60;99.90;;;;;;5028599;28;20545;-67
2022/10/06 02:06:30;;;;;;;4.87;3.00;;;14.60;99.90;;;;;;5030321;28;20336;-69
2022/10/06 02:08:56;;;;;;;3.40;3.10;;;14.40;99.90;;;;;;5031208;28;20178;-67
2022/10/06 02:11:21;;;;;;;8.63;3.77;;;14.50;99.90;;;;;;5025799;28;20675;-68
2022/10/06 02:13:47;;;;;;;4.10;3.50;;;14.60;99.90;;;;;;5030613;28;20190;-68
2022/10/06 02:16:13;;;;;;;3.60;3.30;;;14.60;99.90;;;;;;5030628;28;20201;-69
2022/10/06 02:18:39;;;;;;;4.83;3.60;;;14.30;99.90;;;;;;5029956;28;20194;-67
2022/10/06 02:21:05;;;;;;;3.60;3.00;;;14.40;99.90;;;;;;5020838;28;20836;-67
2022/10/06 02:23:32;;;;;;;4.50;3.40;;;14.30;99.90;;;;;;5030586;28;20273;-67
2022/10/06 02:26:04;;;;;;;3.65;3.35;;;14.20;99.90;;;;;;5027900;28;20206;-69
2022/10/06 02:28:30;;;;;;;4.00;3.17;;;14.30;99.90;;;;;;5025808;28;20595;-69
2022/10/06 02:31:09;;;;;;;3.33;3.00;;;14.40;99.90;;;;;;5030372;28;20296;-70
2022/10/06 02:33:36;;;;;;;3.20;3.00;;;14.30;99.90;;;;;;5029177;28;20202;-70
2022/10/06 02:36:03;;;;;;;3.53;3.22;;;14.10;99.90;;;;;;5012389;28;20201;-69
2022/10/06 02:38:31;;;;;;;3.40;3.20;;;14.20;99.90;;;;;;5031835;28;20170;-67
2022/10/06 02:40:57;;;;;;;3.10;2.85;;;14.40;99.90;;;;;;5035136;28;20222;-67
2022/10/06 02:43:22;;;;;;;5.32;3.70;;;14.30;99.90;;;;;;5046883;28;20189;-67
2022/10/06 02:46:00;;;;;;;4.50;3.47;;;14.20;99.90;;;;;;5031934;28;20206;-67
2022/10/06 02:48:26;;;;;;;3.78;3.47;;;14.30;99.90;;;;;;5046384;28;20193;-67
2022/10/06 02:50:57;;;;;;;3.42;3.03;;;14.30;99.90;;;;;;5022037;28;20185;-69
2022/10/06 02:53:24;;;;;;;4.25;3.13;;;14.50;99.90;;;;;;5049035;28;20224;-69
2022/10/06 02:55:56;;;;;;;5.20;3.33;;;14.20;99.90;;;;;;5037235;28;20208;-67
2022/10/06 02:58:21;;;;;;;3.50;3.00;;;14.30;99.90;;;;;;5026077;28;20178;-69
2022/10/06 03:00:47;;;;;;;3.40;3.10;;;14.30;99.90;;;;;;5024302;28;20301;-70
2022/10/06 03:03:12;;;;;;;4.73;3.27;;;14.10;99.90;;;;;;5038282;28;20189;-68
2022/10/06 03:05:38;;;;;;;4.10;3.70;;;14.30;99.90;;;;;;5032604;28;20203;-69
2022/10/06 03:08:03;;;;;;;3.50;3.20;;;13.50;99.90;;;;;;5033691;28;20557;-67
2022/10/06 03:10:29;;;;;;;5.80;3.80;;;13.80;99.90;;;;;;5033849;28;20186;-68
2022/10/06 03:12:55;;;;;;;3.60;3.30;;;13.90;99.90;;;;;;5033438;28;20226;-67
2022/10/06 03:15:20;;;;;;;3.60;3.30;;;13.80;99.90;;;;;;5032514;28;20214;-67
2022/10/06 03:17:49;;;;;;;5.87;3.30;;;13.90;99.90;;;;;;5031750;28;20996;-67
2022/10/06 03:20:14;;;;;;;4.95;3.28;;;14.10;99.90;;;;;;5024745;28;20221;-69
2022/10/06 03:22:40;;;;;;;4.30;3.53;;;13.80;99.90;;;;;;5033024;28;20299;-67
2022/10/06 03:25:06;;;;;;;3.83;3.40;;;14.00;99.90;;;;;;5033565;28;20214;-69
2022/10/06 03:27:32;;;;;;;6.30;3.67;;;13.90;99.90;;;;;;5033094;28;20815;-69
2022/10/06 03:29:57;;;;;;;5.63;3.40;;;13.90;99.90;;;;;;5034531;28;20264;-67
2022/10/06 03:32:23;;;;;;;5.70;3.03;;;13.80;99.90;;;;;;5033238;28;20558;-69
2022/10/06 03:34:49;;;;;;;3.57;3.07;;;14.00;99.90;;;;;;5033676;28;20273;-69
2022/10/06 03:37:14;;;;;;;3.67;3.20;;;13.60;99.90;;;;;;5022390;28;20194;-69
2022/10/06 03:39:40;;;;;;;3.70;3.40;;;13.80;99.90;;;;;;5030075;28;20194;-67
2022/10/06 03:42:05;;;;;;;5.20;3.80;;;13.80;99.90;;;;;;5031063;28;20210;-69
2022/10/06 03:44:33;;;;;;;7.83;4.07;;;13.70;99.90;;;;;;5032760;28;20235;-69
2022/10/06 03:46:59;;;;;;;4.35;3.28;;;13.70;99.90;;;;;;5027069;28;20272;-69
2022/10/06 03:49:25;;;;;;;4.43;3.90;;;13.90;99.90;;;;;;5025442;28;20698;-67
2022/10/06 03:51:52;;;;;;;5.00;4.00;;;13.60;99.90;;;;;;5033113;28;20198;-69
2022/10/06 03:54:17;;;;;;;5.47;4.00;;;13.70;99.90;;;;;;5027476;28;20550;-69
2022/10/06 03:56:43;;;;;;;8.03;4.93;;;13.40;99.90;;;;;;5028771;28;20208;-69
2022/10/06 03:59:11;;;;;;;7.53;4.40;;;13.70;99.90;;;;;;5029496;28;20201;-69
2022/10/06 04:01:41;;;;;;;4.75;4.20;;;13.50;99.90;;;;;;5032396;28;20554;-69
2022/10/06 04:04:08;;;;;;;6.57;4.20;;;13.40;99.90;;;;;;5039087;28;20186;-69
2022/10/06 04:06:35;;;;;;;5.00;4.20;;;13.70;99.90;;;;;;5029557;28;20241;-69
2022/10/06 04:09:03;;;;;;;4.93;3.72;;;13.50;99.90;;;;;;5031181;28;20195;-69
2022/10/06 04:11:30;;;;;;;4.10;3.80;;;13.30;99.90;;;;;;5031256;28;20182;-69
2022/10/06 04:13:59;;;;;;;4.10;3.72;;;13.60;99.90;;;;;;5032792;28;20190;-69
2022/10/06 04:16:28;;;;;;;4.70;3.75;;;13.50;99.90;;;;;;5033967;28;20752;-69
2022/10/06 04:18:57;;;;;;;7.10;6.40;;;13.60;99.90;;;;;;5032714;28;20198;-69
2022/10/06 04:21:24;;;;;;;6.07;3.85;;;13.60;99.90;;;;;;5029829;28;20241;-69
2022/10/06 04:23:53;;;;;;;4.70;4.18;;;13.50;99.90;;;;;;5029513;28;20186;-69
2022/10/06 04:26:21;;;;;;;5.25;3.75;;;13.60;99.90;;;;;;5025162;28;20199;-69
2022/10/06 04:28:47;;;;;;;3.72;3.40;;;13.80;99.90;;;;;;5029827;28;20193;-69
2022/10/06 04:31:17;;;;;;;4.40;3.83;;;14.00;99.90;;;;;;5030899;28;20264;-69
2022/10/06 04:33:44;;;;;;;4.32;3.95;;;13.80;99.90;;;;;;5029992;28;20282;-69
2022/10/06 04:36:14;;;;;;;5.82;3.65;;;14.00;99.90;;;;;;5029190;28;20229;-69
2022/10/06 04:38:39;;;;;;;5.13;3.58;;;13.70;99.90;;;;;;5033920;28;20194;-69
2022/10/06 04:41:13;;;;;;;5.63;5.00;;;13.80;99.90;;;;;;5028738;28;20198;-69
2022/10/06 04:43:40;;;;;;;7.80;4.85;;;13.80;99.90;;;;;;5030498;28;20198;-69
2022/10/06 04:46:06;;;;;;;7.35;5.47;;;13.80;99.90;;;;;;5030612;28;20293;-69
2022/10/06 04:48:32;;;;;;;5.50;4.03;;;13.90;99.90;;;;;;5031298;28;20261;-69
2022/10/06 04:51:00;;;;;;;5.43;3.80;;;13.60;99.90;;;;;;5025502;28;20455;-69
2022/10/06 04:53:27;;;;;;;7.45;4.80;;;13.80;99.90;;;;;;5029333;28;20179;-69
2022/10/06 04:56:01;;;;;;;4.68;4.22;;;13.90;99.90;;;;;;5027643;28;20296;-69
2022/10/06 04:58:34;;;;;;;7.82;4.30;;;13.80;99.90;;;;;;5030964;28;20189;-69
2022/10/06 05:01:00;;;;;;;4.45;3.92;;;13.70;99.90;;;;;;5029725;28;20202;-69
2022/10/06 05:03:27;;;;;;;8.77;4.25;;;13.70;99.90;;;;;;5028677;28;20179;-69
2022/10/06 05:06:23;;;;;;;6.57;4.70;;;14.10;99.90;;;;;;5029754;28;20264;-69
2022/10/06 05:08:58;;;;;;;5.80;4.00;;;13.90;99.90;;;;;;5021693;28;20191;-69
2022/10/06 05:11:25;;;;;;;4.28;3.80;;;13.80;99.90;;;;;;5026968;28;20572;-69
2022/10/06 05:13:55;;;;;;;6.50;4.50;;;13.90;99.90;;;;;;5027334;28;20195;-69
2022/10/06 05:16:23;;;;;;;5.20;4.00;;;14.10;99.90;;;;;;5029109;28;20202;-70
2022/10/06 05:18:48;;;;;;;4.93;4.03;;;14.20;99.90;;;;;;5027123;28;20221;-69
2022/10/06 05:21:23;;;;;;;5.80;4.00;;;14.10;99.90;;;;;;5028269;28;20237;-69
2022/10/06 05:23:49;;;;;;;4.97;3.70;;;14.20;99.90;;;;;;5028239;28;20251;-69
2022/10/06 05:26:17;;;;;;;6.23;4.40;;;14.10;99.90;;;;;;5028029;28;20647;-69
2022/10/06 05:28:43;;;;;;;6.93;4.35;;;14.40;99.90;;;;;;5026558;28;20433;-55
2022/10/06 05:31:20;;;;;;;5.13;4.17;;;14.30;99.90;;;;;;5026302;28;20597;-61
2022/10/06 05:33:46;;;;;;;4.07;3.70;;;14.20;99.90;;;;;;5033674;28;20240;-61
2022/10/06 05:36:17;;;;;;;5.67;4.10;;;14.40;99.90;;;;;;5028936;28;20214;-62
2022/10/06 05:38:43;;;;;;;4.63;4.22;;;14.40;99.90;;;;;;5027827;28;20805;-70
2022/10/06 05:41:10;;;;;;;4.78;4.03;;;14.30;99.90;;;;;;5024569;28;20726;-70
2022/10/06 05:43:36;;;;;;;6.60;4.43;;;14.50;99.90;;;;;;5028481;28;20197;-69
2022/10/06 05:46:04;;;;;;;6.03;5.43;;;14.40;99.90;;;;;;5026862;28;20248;-70
2022/10/06 05:48:30;;;;;;;5.00;4.43;;;14.40;99.90;;;;;;5043661;28;20612;-71
2022/10/06 05:51:08;;;;;;;4.60;4.20;;;14.60;99.90;;;;;;5023194;28;20186;-70
2022/10/06 05:53:35;;;;;;;6.22;4.13;;;14.60;99.90;;;;;;5026756;28;20432;-70
2022/10/06 05:56:07;;;;;;;5.55;4.22;;;14.50;99.90;;;;;;5035092;28;20208;-70
2022/10/06 05:58:34;;;;;;;4.90;4.38;;;14.60;99.90;;;;;;5027872;28;20185;-70
2022/10/06 06:01:06;;;;;;;5.35;4.85;;;14.70;99.90;;;;;;5027963;28;20181;-68
2022/10/06 06:03:32;;;;;;;4.97;4.57;;;14.80;99.90;;;;;;5028685;28;20175;-69
2022/10/06 06:05:57;;;;;;;5.27;4.50;;;14.90;99.90;;;;;;5017839;28;20751;-68
2022/10/06 06:08:23;;;;;;;6.13;4.43;;;14.70;99.90;;;;;;5029624;28;20178;-68
2022/10/06 06:10:49;;;;;;;5.80;3.83;;;15.00;99.90;;;;;;5028188;28;20217;-68
2022/10/06 06:13:22;;;;;;;4.60;4.13;;;14.70;99.90;;;;;;5027295;28;20620;-69
2022/10/06 06:15:59;;;;;;;5.00;4.50;;;14.90;99.90;;;;;;5029005;28;20233;-68
2022/10/06 06:18:26;;;;;;;5.20;3.72;;;15.00;99.90;;;;;;5029716;28;20185;-67
2022/10/06 06:21:03;;;;;;;4.97;4.47;;;15.30;99.90;;;;;;5022510;28;20209;-67
2022/10/06 06:23:41;;;;;;;10.10;5.63;;;15.20;99.90;;;;;;5030087;28;20666;-66
2022/10/06 06:26:13;;;;;;;5.60;4.47;;;15.20;99.90;;;;;;5018357;28;20202;-71
2022/10/06 06:28:40;;;;;;;5.45;4.50;;;15.20;99.90;;;;;;5031787;28;20197;-69
2022/10/06 06:31:25;;;;;;;6.15;4.70;;;15.30;99.90;;;;;;5018551;28;20182;-70
2022/10/06 06:33:53;;;;;;;7.93;4.07;;;15.10;99.90;;;;;;5019289;28;20189;-71
2022/10/06 06:36:27;;;;;;;8.93;4.63;;;15.50;99.90;;;;;;5022231;28;20323;-70
2022/10/06 06:38:54;;;;;;;8.82;5.07;;;15.60;99.90;;;;;;5027713;28;20186;-70
2022/10/06 06:41:20;;;;;;;6.63;3.97;;;15.50;99.90;;;;;;5024102;28;20190;-71
2022/10/06 06:43:46;;;;;;;5.40;4.90;;;15.60;99.90;;;;;;5025479;28;20182;-69
2022/10/06 06:46:13;;;;;;;7.68;4.60;;;15.70;99.90;;;;;;5027118;28;20216;-71
2022/10/06 06:48:39;;;;;;;6.50;4.70;;;15.60;99.90;;;;;;5031184;28;20182;-68
2022/10/06 06:51:06;;;;;;;6.53;4.38;;;15.90;99.90;;;;;;5019413;28;20188;-70
2022/10/06 06:53:32;;;;;;;8.15;4.70;;;15.90;99.90;;;;;;5018963;28;20196;-69
2022/10/06 06:55:57;;;;;;;5.30;4.80;;;16.00;99.90;;;;;;5025513;28;20694;-68
2022/10/06 06:58:23;;;;;;;25.53;19.40;;;16.10;99.90;;;;;;5027973;28;21017;-71
2022/10/06 07:00:49;;;;;;;6.70;5.27;;;16.20;99.90;;;;;;5029368;28;20272;-71
2022/10/06 07:03:17;;;;;;;6.10;4.93;;;16.40;99.90;;;;;;5026513;28;20193;-73
2022/10/06 07:05:45;;;;;;;6.78;5.65;;;16.20;99.90;;;;;;5029050;28;20459;-71
2022/10/06 07:08:11;;;;;;;9.00;5.97;;;16.30;99.90;;;;;;5023109;28;20643;-72
2022/10/06 07:10:37;;;;;;;8.18;5.20;;;16.30;99.90;;;;;;5027070;28;20185;-72
2022/10/06 07:13:05;;;;;;;8.27;6.03;;;16.60;99.90;;;;;;5023349;28;20830;-70
2022/10/06 07:26:29;;;;;;;8.10;5.70;;;17.10;99.90;;;;;;5026271;28;20208;-64
2022/10/06 07:28:59;;;;;;;8.68;6.05;;;17.10;99.90;;;;;;5033341;28;20201;-67
2022/10/06 07:31:32;;;;;;;9.73;6.75;;;17.10;99.90;;;;;;5028872;28;20614;-68
2022/10/06 07:33:59;;;;;;;8.00;5.47;;;17.60;99.90;;;;;;5026852;28;20225;-64
2022/10/06 07:36:25;;;;;;;7.43;5.15;;;17.70;99.90;;;;;;5025304;28;20616;-66
2022/10/06 07:38:51;;;;;;;9.37;5.50;;;17.80;99.90;;;;;;5028281;28;20182;-66
2022/10/06 07:41:16;;;;;;;5.80;4.83;;;17.80;99.90;;;;;;5025340;28;20212;-70
2022/10/06 07:43:42;;;;;;;7.13;5.77;;;18.00;99.90;;;;;;5028538;28;20320;-64
2022/10/06 07:46:11;;;;;;;6.00;4.57;;;17.60;99.90;;;;;;5033337;28;20687;-64
2022/10/06 07:48:37;;;;;;;7.70;4.60;;;17.80;99.90;;;;;;5026069;28;20197;-63
2022/10/06 07:51:05;;;;;;;5.27;4.77;;;17.90;99.90;;;;;;5026450;28;20637;-62
2022/10/06 07:53:32;;;;;;;4.88;4.13;;;17.90;99.90;;;;;;5031294;28;20564;-63
2022/10/06 07:56:05;;;;;;;5.78;4.35;;;18.20;99.90;;;;;;5027937;28;20209;-69
2022/10/06 07:58:32;;;;;;;4.70;4.15;;;18.40;99.90;;;;;;5027238;28;20190;-70
2022/10/06 08:01:07;;;;;;;5.80;3.72;;;18.60;99.90;;;;;;5030517;28;20233;-69
2022/10/06 08:03:35;;;;;;;4.97;3.47;;;18.80;99.90;;;;;;5030307;28;20186;-69
2022/10/06 08:06:01;;;;;;;4.45;3.10;;;18.80;99.90;;;;;;5030390;28;20209;-69
2022/10/06 08:08:31;;;;;;;3.40;2.67;;;18.90;99.90;;;;;;5030915;28;20178;-69
2022/10/06 08:10:59;;;;;;;4.18;2.17;;;19.20;99.90;;;;;;5017900;28;20425;-68
2022/10/06 08:13:25;;;;;;;7.72;2.97;;;19.30;99.90;;;;;;5032139;28;20217;-72
2022/10/06 08:15:53;;;;;;;3.45;2.30;;;19.20;99.90;;;;;;5029845;28;20202;-69
2022/10/06 08:18:20;;;;;;;2.70;2.42;;;19.10;99.90;;;;;;5029120;28;20197;-70
2022/10/06 08:20:46;;;;;;;9.20;5.07;;;19.20;99.90;;;;;;5027511;28;20203;-69
2022/10/06 08:23:12;;;;;;;3.55;3.25;;;19.30;99.90;;;;;;5030712;28;20194;-70
2022/10/06 08:25:42;;;;;;;5.80;4.07;;;19.40;99.90;;;;;;5033276;28;20210;-69
2022/10/06 08:28:11;;;;;;;2.72;1.95;;;19.30;99.80;;;;;;5026473;28;20182;-71
2022/10/06 08:30:37;;;;;;;2.00;1.75;;;19.10;99.70;;;;;;5026914;28;20185;-70
2022/10/06 08:33:04;;;;;;;3.83;1.63;;;19.20;99.80;;;;;;5030440;28;20186;-68
2022/10/06 08:35:30;;;;;;;5.75;2.17;;;19.10;98.20;;;;;;5027348;28;20855;-70
2022/10/06 08:37:56;;;;;;;3.60;2.20;;;19.20;98.30;;;;;;5030497;28;20189;-71
2022/10/06 08:40:22;;;;;;;3.70;2.50;;;19.40;98.40;;;;;;5029908;28;20190;-65
2022/10/06 08:43:01;;;;;;;2.50;1.90;;;19.20;98.10;;;;;;5027700;28;20266;-64
2022/10/06 08:45:34;;;;;;;2.30;1.52;;;19.20;97.80;;;;;;5033074;28;20334;-67
2022/10/06 08:48:06;;;;;;;5.35;3.55;;;19.20;97.30;;;;;;5029233;28;20240;-76
2022/10/06 08:50:44;;;;;;;3.70;1.85;;;19.20;97.50;;;;;;5038263;28;20180;-72
2022/10/06 08:53:29;;;;;;;6.22;2.15;;;19.20;97.40;;;;;;5027757;28;20196;-71
2022/10/06 08:56:07;;;;;;;4.25;2.60;;;19.30;96.80;;;;;;5030141;28;20573;-72
2022/10/06 08:58:49;;;;;;;2.30;1.67;;;19.30;96.70;;;;;;5024958;28;20178;-71
2022/10/06 09:01:25;;;;;;;3.50;1.75;;;19.30;96.90;;;;;;5023754;28;20292;-70
2022/10/06 09:03:54;;;;;;;2.35;1.70;;;19.20;96.70;;;;;;5031443;28;20185;-69
2022/10/06 09:06:48;;;;;;;1.50;1.40;;;19.20;96.60;;;;;;5026754;28;20198;-70
2022/10/06 09:09:29;;;;;;;3.55;1.35;;;19.40;96.80;;;;;;5022523;28;20174;-71
2022/10/06 09:12:06;;;;;;;2.47;1.40;;;19.40;96.60;;;;;;5021911;28;20447;-69
2022/10/06 09:14:41;;;;;;;4.00;2.00;;;19.20;95.80;;;;;;5030187;28;20217;-68
2022/10/06 09:17:13;;;;;;;3.03;1.67;;;19.20;96.30;;;;;;5030243;28;20190;-69
2022/10/06 09:19:44;;;;;;;5.15;3.50;;;19.20;95.90;;;;;;5027685;28;20252;-71
2022/10/06 09:22:16;;;;;;;5.70;1.65;;;19.30;96.30;;;;;;5023937;28;20211;-70
2022/10/06 09:24:48;;;;;;;4.05;2.50;;;19.30;95.70;;;;;;5025261;28;20193;-70
2022/10/06 09:27:23;;;;;;;3.75;2.17;;;19.40;95.90;;;;;;5022391;28;20270;-71
2022/10/06 09:29:51;;;;;;;2.88;1.95;;;19.20;95.50;;;;;;5026858;28;20189;-68
2022/10/06 09:32:18;;;;;;;3.10;2.05;;;19.50;95.50;;;;;;5041137;28;20207;-73
2022/10/06 09:34:51;;;;;;;3.85;1.77;;;19.50;96.20;;;;;;5027291;28;20186;-70
2022/10/06 09:37:17;;;;;;;2.65;1.50;;;19.60;95.90;;;;;;5028181;28;20186;-69
2022/10/06 09:39:47;;;;;;;3.60;2.30;;;19.70;95.30;;;;;;5024117;28;20202;-70
2022/10/06 09:42:18;;;;;;;10.93;3.50;;;19.80;94.80;;;;;;5021524;28;20201;-70
2022/10/06 09:44:50;;;;;;;3.17;1.15;;;20.20;94.40;;;;;;5029928;28;20182;-70
2022/10/06 09:47:31;;;;;;;2.72;1.52;;;20.40;93.10;;;;;;5028636;28;20194;-69
2022/10/06 09:50:15;;;;;;;6.47;5.05;;;20.50;93.10;;;;;;5026749;28;20178;-68
2022/10/06 09:52:42;;;;;;;3.80;2.88;;;20.60;94.00;;;;;;5026168;28;20708;-69
2022/10/06 09:55:18;;;;;;;4.22;1.73;;;20.70;93.30;;;;;;5028813;28;20210;-69
2022/10/06 09:57:49;;;;;;;2.75;2.45;;;20.80;92.80;;;;;;5027705;28;20194;-69
2022/10/06 10:00:58;;;;;;;5.50;2.13;;;20.80;92.90;;;;;;5026383;28;20207;-68
2022/10/06 10:03:25;;;;;;;3.53;2.65;;;20.70;93.60;;;;;;5011010;28;20253;-68
2022/10/06 10:05:55;;;;;;;3.05;2.30;;;20.70;93.70;;;;;;5022139;28;20321;-67
2022/10/06 10:08:23;;;;;;;4.35;2.20;;;20.70;94.00;;;;;;5026235;28;20183;-66
2022/10/06 10:13:56;;;;;;;4.18;1.90;;;20.40;94.70;;;;;;5028367;28;20279;-72
2022/10/06 10:16:33;;;;;;;7.85;5.45;;;20.10;94.50;;;;;;5029399;28;20217;-73
2022/10/06 10:18:59;;;;;;;4.00;1.80;;;20.20;94.70;;;;;;5027335;28;20186;-73
2022/10/06 10:21:32;;;;;;;4.93;2.03;;;20.00;95.20;;;;;;5026323;28;20214;-67
2022/10/06 10:24:01;;;;;;;2.15;1.83;;;20.50;96.20;;;;;;5028000;28;20189;-69
2022/10/06 10:26:49;;;;;;;4.60;2.05;;;19.80;96.00;;;;;;5024768;28;20201;-68
2022/10/06 10:29:17;;;;;;;7.88;3.63;;;20.00;96.40;;;;;;5022177;28;20265;-72
2022/10/06 10:31:53;;;;;;;4.32;2.30;;;20.10;95.90;;;;;;5027620;28;20201;-70
2022/10/06 10:34:47;;;;;;;2.90;2.00;;;20.00;95.90;;;;;;5025705;28;20302;-68
2022/10/06 10:37:37;;;;;;;2.67;1.90;;;20.00;95.30;;;;;;5021833;28;20201;-69
2022/10/06 10:40:17;;;;;;;2.78;1.73;;;20.00;95.60;;;;;;5040209;28;20184;-67
2022/10/06 10:42:55;;;;;;;2.60;1.95;;;19.90;95.10;;;;;;5025835;28;20233;-71
2022/10/06 10:45:31;;;;;;;4.60;1.40;;;19.80;94.40;;;;;;5027142;28;20623;-69
2022/10/06 10:48:00;;;;;;;2.53;1.40;;;19.90;94.50;;;;;;5024669;28;20190;-67
2022/10/06 10:50:32;;;;;;;2.88;1.38;;;20.00;94.00;;;;;;5025505;28;20243;-66
2022/10/06 10:53:12;;;;;;;3.97;1.60;;;20.20;93.90;;;;;;5030023;28;20194;-65
2022/10/06 10:55:45;;;;;;;3.70;1.70;;;20.20;94.30;;;;;;5033048;28;20225;-68
2022/10/06 10:58:29;;;;;;;8.45;2.20;;;19.90;94.50;;;;;;5021613;28;20589;-69
2022/10/06 11:01:04;;;;;;;2.67;1.85;;;20.00;95.30;;;;;;5028597;28;20374;-67
2022/10/06 11:03:30;;;;;;;3.53;2.45;;;20.30;95.10;;;;;;5028554;28;20194;-66
2022/10/06 11:06:20;;;;;;;2.33;1.83;;;19.80;95.20;;;;;;5028138;28;20214;-66
2022/10/06 11:09:00;;;;;;;4.13;2.45;;;20.20;95.50;;;;;;5029034;28;20197;-66
2022/10/06 11:11:47;;;;;;;3.80;1.70;;;20.10;94.90;;;;;;5023650;28;20193;-67
2022/10/06 11:14:32;;;;;;;5.30;2.85;;;20.60;94.50;;;;;;5033330;28;20256;-66
2022/10/06 11:17:28;;;;;;;5.75;1.88;;;20.80;93.60;;;;;;5030388;28;20618;-67
2022/10/06 11:20:11;;;;;;;3.35;2.05;;;20.70;93.40;;;;;;5031325;28;20185;-66
2022/10/06 11:22:52;;;;;;;2.57;1.80;;;21.00;93.70;;;;;;5026622;28;20218;-69
2022/10/06 11:25:36;;;;;;;2.78;1.98;;;21.30;93.60;;;;;;5051088;28;20451;-70
2022/10/06 11:28:18;;;;;;;3.78;1.77;;;21.50;93.00;;;;;;5022353;28;20186;-72
2022/10/06 11:31:22;;;;;;;6.10;2.13;;;21.40;92.70;;;;;;5025790;28;20178;-69
2022/10/06 11:33:51;;;;;;;3.35;2.13;;;21.40;92.80;;;;;;5027475;28;20227;-70
2022/10/06 11:36:45;;;;;;;2.38;1.67;;;20.70;92.90;;;;;;5030981;28;20605;-69
2022/10/06 11:39:23;;;;;;;7.20;1.85;;;21.20;92.30;;;;;;5030401;28;20178;-70
2022/10/06 11:42:12;;;;;;;3.13;1.60;;;21.10;92.00;;;;;;5021225;28;20271;-71
2022/10/06 11:44:45;;;;;;;5.55;2.70;;;21.00;92.60;;;;;;5034347;28;20663;-69
2022/10/06 11:47:19;;;;;;;3.33;2.10;;;20.90;93.10;;;;;;5031416;28;20209;-69
2022/10/06 11:49:53;;;;;;;4.70;1.67;;;20.70;93.50;;;;;;5031250;28;20202;-68
2022/10/06 11:52:19;;;;;;;3.70;2.58;;;20.60;93.50;;;;;;5020272;28;20186;-70
2022/10/06 11:54:50;;;;;;;7.13;1.90;;;20.50;93.70;;;;;;5031958;28;20186;-69
2022/10/06 11:57:22;;;;;;;4.40;2.17;;;20.30;93.90;;;;;;5028401;28;20588;-70
2022/10/06 12:00:16;;;;;;;6.43;2.00;;;20.40;93.70;;;;;;5031253;28;20222;-72
2022/10/06 12:02:44;;;;;;;5.10;2.20;;;20.20;93.50;;;;;;5022988;28;20206;-71
2022/10/06 12:05:17;;;;;;;8.73;2.60;;;20.60;93.50;;;;;;5024967;28;20217;-67
2022/10/06 12:07:58;;;;;;;2.88;1.50;;;20.90;93.30;;;;;;5030075;28;20192;-68
2022/10/06 12:10:26;;;;;;;2.63;1.70;;;21.30;92.50;;;;;;5026881;28;20213;-68
2022/10/06 12:12:55;;;;;;;3.42;1.00;;;21.10;91.80;;;;;;5023013;28;20190;-72
2022/10/06 12:15:27;;;;;;;6.25;1.60;;;21.30;91.40;;;;;;5030607;28;20209;-69
2022/10/06 12:18:36;;;;;;;3.63;3.00;;;21.30;91.20;;;;;;5029722;28;20216;-68
2022/10/06 12:21:16;;;;;;;3.42;2.20;;;21.40;91.30;;;;;;4991061;28;20229;-69
2022/10/06 12:24:14;;;;;;;4.57;1.90;;;21.30;91.20;;;;;;4989803;28;20657;-68
2022/10/06 12:27:07;;;;;;;4.05;2.90;;;21.10;91.00;;;;;;4996594;28;20214;-68
2022/10/06 12:29:49;;;;;;;3.67;1.55;;;20.90;91.90;;;;;;5029075;28;20228;-72
2022/10/06 12:32:17;;;;;;;6.35;1.98;;;21.10;92.00;;;;;;5029591;28;20179;-70
2022/10/06 12:35:02;;;;;;;3.10;2.40;;;20.90;91.70;;;;;;5032928;28;20186;-69
2022/10/06 12:37:27;;;;;;;5.20;2.20;;;21.20;92.10;;;;;;5032212;28;20738;-67
2022/10/06 12:40:31;;;;;;;4.90;1.90;;;21.00;91.80;;;;;;5031255;28;20342;-68
2022/10/06 12:43:19;;;;;;;3.35;1.73;;;20.90;92.90;;;;;;5024447;28;20210;-71
2022/10/06 12:46:06;;;;;;;2.35;1.90;;;20.40;92.50;;;;;;5028576;28;20526;-69
2022/10/06 12:48:48;;;;;;;5.80;1.85;;;20.40;93.20;;;;;;5029641;28;20178;-69
2022/10/06 12:51:37;;;;;;;3.78;1.70;;;20.50;92.90;;;;;;5028716;28;20730;-69
2022/10/06 12:54:18;;;;;;;4.18;1.98;;;20.50;93.10;;;;;;5028920;28;20186;-71
2022/10/06 12:56:56;;;;;;;3.78;2.20;;;20.50;92.70;;;;;;5025079;28;20194;-71
2022/10/06 12:59:26;;;;;;;2.22;2.00;;;20.50;92.40;;;;;;5023050;28;20205;-73
2022/10/06 13:01:58;;;;;;;4.22;2.20;;;20.50;92.30;;;;;;5026261;28;20234;-67
2022/10/06 13:04:35;;;;;;;2.80;1.60;;;20.50;92.80;;;;;;5026048;28;20582;-68
2022/10/06 13:07:22;;;;;;;3.03;2.10;;;20.70;92.70;;;;;;5023874;28;20194;-71
2022/10/06 13:09:51;;;;;;;4.57;2.65;;;20.60;92.40;;;;;;5022898;28;20577;-70
2022/10/06 13:12:25;;;;;;;2.92;1.52;;;20.90;92.60;;;;;;5028705;28;20248;-68
2022/10/06 13:15:15;;;;;;;1.80;1.70;;;20.50;92.30;;;;;;5029194;28;20273;-69
2022/10/06 13:17:53;;;;;;;5.10;2.63;;;20.60;92.60;;;;;;5028850;28;20683;-68
2022/10/06 13:20:30;;;;;;;3.38;2.78;;;20.70;92.40;;;;;;5019311;28;20836;-71